createdAt,value
2023-03-01T00:05:29.098Z,11.10
2023-03-01T00:13:37.945Z,11.20
2023-03-01T00:21:43.964Z,11.20
2023-03-01T00:29:52.089Z,11.20
2023-03-01T00:37:59.082Z,11.20
2023-03-01T00:46:14.366Z,11.20
2023-03-01T00:54:19.821Z,11.10
2023-03-01T01:02:29.518Z,11.20
2023-03-01T01:10:34.973Z,11.30
2023-03-01T01:18:43.080Z,11.10
2023-03-01T01:26:48.664Z,11.00
2023-03-01T01:34:56.686Z,11.30
2023-03-01T01:43:02.075Z,11.10
2023-03-01T01:51:13.545Z,11.20
2023-03-01T01:59:19.687Z,11.10
2023-03-01T02:07:28.547Z,11.30
2023-03-01T02:15:37.899Z,11.30
2023-03-01T02:23:46.105Z,11.20
2023-03-01T02:31:57.725Z,11.10
2023-03-01T02:40:12.702Z,11.00
2023-03-01T02:48:20.919Z,11.00
2023-03-01T02:56:27.206Z,10.90
2023-03-01T03:04:35.277Z,11.00
2023-03-01T03:12:41.462Z,11.10
2023-03-01T03:20:53.718Z,11.10
2023-03-01T03:28:59.220Z,11.10
2023-03-01T03:37:27.226Z,11.20
2023-03-01T03:45:34.530Z,11.20
2023-03-01T03:53:42.602Z,11.20
2023-03-01T04:01:48.062Z,11.40
2023-03-01T04:09:56.146Z,11.40
2023-03-01T04:18:01.629Z,11.40
2023-03-01T04:26:09.618Z,11.50
2023-03-01T04:34:15.253Z,11.40
2023-03-01T04:42:23.743Z,11.50
2023-03-01T04:50:29.546Z,11.50
2023-03-01T04:58:37.775Z,11.60
2023-03-01T05:06:43.476Z,11.70
2023-03-01T05:14:52.516Z,11.50
2023-03-01T05:23:01.053Z,11.50
2023-03-01T05:31:10.880Z,11.40
2023-03-01T05:39:16.342Z,11.50
2023-03-01T05:47:24.356Z,11.60
2023-03-01T05:55:30.678Z,11.70
2023-03-01T06:03:38.710Z,11.80
2023-03-01T06:11:44.091Z,11.70
2023-03-01T06:19:52.095Z,11.80
2023-03-01T06:27:57.724Z,11.70
2023-03-01T06:36:05.898Z,11.90
2023-03-01T06:44:11.399Z,12.20
2023-03-01T06:52:19.395Z,12.20
2023-03-01T07:00:25.856Z,12.10
2023-03-01T07:08:33.849Z,12.10
2023-03-01T07:16:39.418Z,12.30
2023-03-01T07:24:48.126Z,12.20
2023-03-01T07:32:55.604Z,12.40
2023-03-01T07:41:06.804Z,12.60
2023-03-01T07:49:12.261Z,12.80
2023-03-01T07:57:20.305Z,12.70
2023-03-01T08:05:25.799Z,12.70
2023-03-01T08:13:34.774Z,12.80
2023-03-01T08:21:40.770Z,13.00
2023-03-01T08:29:48.897Z,13.00
2023-03-01T08:37:54.383Z,12.50
2023-03-01T08:46:02.938Z,12.80
2023-03-01T08:54:09.084Z,12.80
2023-03-01T09:02:20.084Z,12.60
2023-03-01T09:10:25.735Z,12.70
2023-03-01T09:18:34.661Z,13.00
2023-03-01T09:26:40.630Z,13.00
2023-03-01T09:35:07.139Z,13.00
2023-03-01T09:43:22.269Z,13.10
2023-03-01T09:51:34.554Z,13.30
2023-03-01T09:59:54.400Z,13.80
2023-03-01T10:08:18.926Z,13.40
2023-03-01T10:16:30.420Z,12.60
2023-03-01T10:24:40.451Z,12.80
2023-03-01T10:32:50.213Z,13.40
2023-03-01T10:41:00.833Z,13.50
2023-03-01T10:49:18.919Z,14.00
2023-03-01T10:57:49.263Z,14.10
2023-03-01T11:05:57.566Z,14.20
2023-03-01T11:14:24.964Z,14.10
2023-03-01T11:22:31.988Z,14.10
2023-03-01T11:31:07.101Z,14.30
2023-03-01T11:39:26.959Z,14.10
2023-03-01T11:47:50.021Z,14.20
2023-03-01T11:56:06.393Z,15.00
2023-03-01T12:04:54.421Z,14.90
2023-03-01T12:13:34.940Z,14.50
2023-03-01T12:22:10.164Z,15.20
2023-03-01T12:30:29.809Z,15.30
2023-03-01T12:38:45.984Z,15.00
2023-03-01T12:47:08.829Z,15.40
2023-03-01T12:55:30.378Z,15.40
2023-03-01T13:04:02.052Z,15.30
2023-03-01T13:12:48.646Z,14.30
2023-03-01T13:20:55.854Z,14.50
2023-03-01T13:29:04.084Z,14.40
2023-03-01T13:37:33.201Z,14.70
2023-03-01T13:45:44.534Z,14.40
2023-03-01T13:53:51.560Z,14.30
2023-03-01T14:02:01.747Z,13.60
2023-03-01T14:10:10.127Z,13.30
2023-03-01T14:18:24.460Z,13.90
2023-03-01T14:26:30.395Z,14.00
2023-03-01T14:34:39.523Z,13.60
2023-03-01T14:42:47.234Z,13.50
2023-03-01T14:50:56.112Z,13.30
2023-03-01T14:59:03.201Z,13.10
2023-03-01T15:07:17.063Z,13.20
2023-03-01T15:15:44.614Z,13.00
2023-03-01T15:23:58.592Z,13.10
2023-03-01T15:32:06.780Z,13.40
2023-03-01T15:40:32.675Z,12.90
2023-03-01T15:48:38.274Z,12.70
2023-03-01T15:56:46.558Z,12.80
2023-03-01T16:04:52.486Z,12.60
2023-03-01T16:13:02.635Z,12.80
2023-03-01T16:21:10.277Z,13.10
2023-03-01T16:29:18.726Z,13.40
2023-03-01T16:37:26.665Z,13.70
2023-03-01T16:45:41.616Z,13.10
2023-03-01T16:53:47.844Z,13.40
2023-03-01T17:01:56.727Z,13.10
2023-03-01T17:10:02.210Z,13.20
2023-03-01T17:18:10.565Z,13.00
2023-03-01T17:26:18.285Z,12.90
2023-03-01T17:34:26.907Z,12.40
2023-03-01T17:42:32.407Z,12.70
2023-03-01T17:50:42.047Z,13.30
2023-03-01T17:58:47.613Z,13.30
2023-03-01T18:06:56.320Z,13.20
2023-03-01T18:15:02.106Z,13.20
2023-03-01T18:23:10.552Z,12.90
2023-03-01T18:31:18.643Z,12.70
2023-03-01T18:39:27.571Z,12.80
2023-03-01T18:47:33.219Z,12.30
2023-03-01T18:55:42.926Z,12.40
2023-03-01T19:03:49.263Z,12.50
2023-03-01T19:12:00.960Z,12.30
2023-03-01T19:20:11.147Z,12.20
2023-03-01T19:28:21.433Z,11.90
2023-03-01T19:36:33.755Z,12.40
2023-03-01T19:44:45.393Z,12.60
2023-03-01T19:52:50.887Z,12.20
2023-03-01T20:01:01.080Z,12.10
2023-03-01T20:09:20.961Z,12.10
2023-03-01T20:17:30.873Z,12.20
2023-03-01T20:25:39.387Z,12.30
2023-03-01T20:33:47.819Z,12.40
2023-03-01T20:41:53.315Z,12.30
2023-03-01T20:50:02.737Z,12.20
2023-03-01T20:58:08.495Z,12.50
2023-03-01T21:06:17.185Z,12.40
2023-03-01T21:14:23.814Z,12.60
2023-03-01T21:22:33.086Z,12.80
2023-03-01T21:30:41.990Z,12.80
2023-03-01T21:38:52.007Z,11.90
2023-03-01T21:46:59.154Z,11.70
2023-03-01T21:55:07.784Z,11.40
2023-03-01T22:03:13.270Z,12.00
2023-03-01T22:11:22.258Z,12.20
2023-03-01T22:19:28.866Z,12.20
2023-03-01T22:27:37.430Z,12.40
2023-03-01T22:35:45.010Z,12.60
2023-03-01T22:43:53.223Z,12.60
2023-03-01T22:52:00.422Z,12.40
2023-03-01T23:00:13.377Z,12.60
2023-03-01T23:08:18.856Z,12.50
2023-03-01T23:16:28.203Z,12.50
2023-03-01T23:24:34.103Z,12.50
2023-03-01T23:32:42.286Z,12.20
2023-03-01T23:40:47.719Z,12.10
2023-03-01T23:48:57.030Z,12.10
2023-03-01T23:57:02.671Z,11.90
